createdAt,value
2019-01-23T00:02:45.287Z,-0.20
2019-01-23T00:07:48.628Z,-0.20
2019-01-23T00:12:58.159Z,-0.40
2019-01-23T00:18:04.891Z,-0.40
2019-01-23T00:23:25.763Z,-0.50
2019-01-23T00:28:33.879Z,-0.40
2019-01-23T00:33:36.961Z,-0.40
2019-01-23T00:38:58.744Z,-0.50
2019-01-23T00:44:06.671Z,-0.40
2019-01-23T00:49:10.771Z,-0.40
2019-01-23T00:54:14.624Z,-0.40
2019-01-23T00:59:22.891Z,-0.50
2019-01-23T01:04:29.478Z,-0.50
2019-01-23T01:09:32.917Z,-0.40
2019-01-23T01:14:44.842Z,-0.40
2019-01-23T01:19:48.402Z,-0.50
2019-01-23T01:24:52.507Z,-0.50
2019-01-23T01:29:58.780Z,-0.40
2019-01-23T01:35:05.691Z,-0.40
2019-01-23T01:40:12.683Z,-0.40
2019-01-23T01:45:17.458Z,-0.30
2019-01-23T01:50:20.854Z,-0.30
2019-01-23T01:55:32.665Z,-0.40
2019-01-23T02:00:38.830Z,-0.40
2019-01-23T02:05:42.520Z,-0.30
2019-01-23T02:10:48.653Z,-0.30
2019-01-23T02:16:09.938Z,-0.30
2019-01-23T02:21:17.396Z,-0.30
2019-01-23T02:26:20.809Z,-0.40
2019-01-23T02:31:23.554Z,-0.40
2019-01-23T02:36:37.488Z,-0.50
2019-01-23T02:41:43.561Z,-0.40
2019-01-23T02:46:46.729Z,-0.40
2019-01-23T02:51:53.504Z,-0.30
2019-01-23T02:57:01.369Z,-0.30
2019-01-23T03:02:22.275Z,-0.30
2019-01-23T03:07:26.227Z,-0.40
2019-01-23T03:12:38.083Z,-0.30
2019-01-23T03:17:51.399Z,-0.30
2019-01-23T03:22:58.098Z,-0.30
2019-01-23T03:28:05.126Z,-0.40
2019-01-23T03:33:08.281Z,-0.30
2019-01-23T03:38:14.310Z,-0.30
2019-01-23T03:43:17.256Z,-0.30
2019-01-23T03:48:23.668Z,-0.40
2019-01-23T03:53:27.524Z,-0.30
2019-01-23T03:58:30.680Z,-0.30
2019-01-23T04:03:36.423Z,-0.30
2019-01-23T04:08:42.940Z,-0.30
2019-01-23T04:14:04.619Z,-0.40
2019-01-23T04:19:11.155Z,-0.50
2019-01-23T04:24:32.195Z,-0.80
2019-01-23T04:29:39.810Z,-1.00
2019-01-23T04:34:42.327Z,-1.10
2019-01-23T04:40:05.187Z,-1.00
2019-01-23T04:45:12.187Z,-1.00
2019-01-23T04:50:17.398Z,-1.00
2019-01-23T04:55:20.590Z,-0.90
2019-01-23T05:00:27.779Z,-0.90
2019-01-23T05:05:31.116Z,-0.90
2019-01-23T05:10:36.284Z,-0.80
2019-01-23T05:15:57.099Z,-0.90
2019-01-23T05:21:18.732Z,-0.90
2019-01-23T05:26:30.456Z,-0.90
2019-01-23T05:31:37.484Z,-0.90
2019-01-23T05:36:49.405Z,-1.00
2019-01-23T05:41:57.398Z,-1.10
2019-01-23T05:47:05.317Z,-1.30
2019-01-23T05:52:18.176Z,-1.40
2019-01-23T05:57:39.444Z,-1.40
2019-01-23T06:02:52.037Z,-1.40
2019-01-23T06:07:55.868Z,-1.60
2019-01-23T06:12:58.733Z,-1.80
2019-01-23T06:18:19.642Z,-2.00
2019-01-23T06:23:40.362Z,-2.00
2019-01-23T06:28:53.120Z,-2.00
2019-01-23T06:34:14.618Z,-2.00
2019-01-23T06:39:17.927Z,-2.10
2019-01-23T06:44:39.235Z,-2.20
2019-01-23T06:49:42.236Z,-2.30
2019-01-23T06:54:45.045Z,-2.40
2019-01-23T06:59:52.867Z,-2.40
2019-01-23T07:05:00.955Z,-2.40
2019-01-23T07:10:09.836Z,-2.40
2019-01-23T07:15:18.311Z,-2.50
2019-01-23T07:20:26.365Z,-2.50
2019-01-23T07:25:33.359Z,-2.50
2019-01-23T07:30:41.063Z,-2.50
2019-01-23T07:35:43.733Z,-2.40
2019-01-23T07:40:57.686Z,-2.30
2019-01-23T07:46:19.162Z,-2.20
2019-01-23T07:51:22.804Z,-2.10
2019-01-23T07:56:26.807Z,-2.20
2019-01-23T08:01:29.612Z,-2.10
2019-01-23T08:06:50.588Z,-2.10
2019-01-23T08:11:56.554Z,-2.00
2019-01-23T08:17:08.441Z,-2.00
2019-01-23T08:22:15.291Z,-1.90
2019-01-23T08:27:18.199Z,-1.80
2019-01-23T08:32:21.808Z,-1.80
2019-01-23T08:37:28.014Z,-1.80
2019-01-23T08:42:49.007Z,-1.80
2019-01-23T08:47:55.106Z,-1.70
2019-01-23T08:52:58.784Z,-1.60
2019-01-23T08:58:20.083Z,-1.60
2019-01-23T09:03:22.779Z,-1.50
2019-01-23T09:08:26.604Z,-1.40
2019-01-23T09:13:33.516Z,-1.30
2019-01-23T09:18:54.868Z,-1.10
2019-01-23T09:24:02.017Z,-0.90
2019-01-23T09:29:15.947Z,-0.90
2019-01-23T09:35:22.773Z,-0.80
2019-01-23T09:41:02.940Z,-0.40
2019-01-23T09:46:39.652Z,-0.40
2019-01-23T09:52:29.340Z,-0.50
2019-01-23T09:57:36.367Z,-0.50
2019-01-23T10:02:39.283Z,-0.60
2019-01-23T10:08:00.309Z,-0.60
2019-01-23T10:13:06.571Z,-0.40
2019-01-23T10:18:10.689Z,-0.40
2019-01-23T10:23:14.264Z,-0.40
2019-01-23T10:28:26.880Z,-0.40
2019-01-23T10:33:30.751Z,-0.20
2019-01-23T10:38:51.657Z,-0.20
2019-01-23T10:43:54.448Z,0.00
2019-01-23T10:49:07.237Z,-0.20
2019-01-23T10:54:11.335Z,-0.40
2019-01-23T10:59:17.999Z,-0.40
2019-01-23T11:04:21.120Z,-0.50
2019-01-23T11:09:25.928Z,-0.40
2019-01-23T11:14:30.903Z,-0.50
2019-01-23T11:19:34.971Z,-0.50
2019-01-23T11:24:42.682Z,-0.30
2019-01-23T11:29:54.531Z,0.00
2019-01-23T11:34:59.420Z,0.20
2019-01-23T11:40:06.055Z,0.40
2019-01-23T11:45:13.137Z,0.50
2019-01-23T11:50:35.167Z,0.40
2019-01-23T11:55:49.439Z,0.40
2019-01-23T12:00:52.571Z,0.40
2019-01-23T12:05:55.707Z,0.40
2019-01-23T12:10:59.256Z,0.40
2019-01-23T12:16:06.010Z,0.40
2019-01-23T12:21:09.575Z,0.60
2019-01-23T12:26:12.704Z,0.80
2019-01-23T12:31:35.153Z,0.90
2019-01-23T12:36:47.695Z,0.90
2019-01-23T12:41:55.296Z,0.90
2019-01-23T12:46:58.719Z,0.90
2019-01-23T12:52:04.091Z,0.90
2019-01-23T12:57:16.970Z,0.90
2019-01-23T13:02:23.599Z,0.80
2019-01-23T13:07:44.524Z,0.90
2019-01-23T13:13:05.768Z,1.00
2019-01-23T13:18:12.018Z,1.20
2019-01-23T13:23:33.397Z,1.10
2019-01-23T13:28:54.305Z,1.10
2019-01-23T13:33:57.968Z,1.30
2019-01-23T13:39:08.895Z,1.10
2019-01-23T13:44:16.527Z,1.00
2019-01-23T13:49:19.916Z,0.90
2019-01-23T13:54:26.362Z,0.80
2019-01-23T13:59:39.299Z,0.60
2019-01-23T14:04:46.885Z,0.50
2019-01-23T14:09:53.992Z,0.40
2019-01-23T14:14:57.747Z,0.50
2019-01-23T14:20:00.765Z,0.40
2019-01-23T14:25:06.736Z,0.30
2019-01-23T14:30:24.579Z,0.30
2019-01-23T14:35:31.671Z,0.30
2019-01-23T14:40:36.642Z,0.30
2019-01-23T14:45:43.483Z,0.30
2019-01-23T14:50:47.276Z,0.30
2019-01-23T14:55:51.261Z,0.20
2019-01-23T15:01:12.359Z,0.10
2019-01-23T15:06:19.737Z,0.00
2019-01-23T15:11:22.563Z,0.00
2019-01-23T15:16:43.711Z,0.00
2019-01-23T15:21:55.768Z,0.00
2019-01-23T15:27:17.408Z,-0.10
2019-01-23T15:32:38.648Z,-0.20
2019-01-23T15:37:41.534Z,-0.20
2019-01-23T15:42:46.124Z,-0.20
2019-01-23T15:47:48.898Z,-0.20
2019-01-23T15:52:56.376Z,-0.30
2019-01-23T15:58:09.060Z,-0.30
2019-01-23T16:03:16.256Z,-0.40
2019-01-23T16:08:39.679Z,-0.40
2019-01-23T16:13:43.027Z,-0.50
2019-01-23T16:19:04.069Z,-0.60
2019-01-23T16:24:10.771Z,-0.50
2019-01-23T16:29:31.992Z,-0.50
2019-01-23T16:34:45.923Z,-0.50
2019-01-23T16:40:08.431Z,-0.60
2019-01-23T16:45:29.603Z,-0.70
2019-01-23T16:50:32.820Z,-0.70
2019-01-23T16:55:36.434Z,-0.70
2019-01-23T17:01:41.581Z,-0.70
2019-01-23T17:07:04.171Z,-0.80
2019-01-23T17:12:09.370Z,-0.70
2019-01-23T17:17:14.887Z,-0.80
2019-01-23T17:22:17.523Z,-0.80
2019-01-23T17:27:21.288Z,-0.80
2019-01-23T17:32:34.783Z,-0.90
2019-01-23T17:37:56.028Z,-1.00
2019-01-23T17:43:02.812Z,-1.00
2019-01-23T17:48:25.454Z,-1.10
2019-01-23T17:53:28.696Z,-1.10
2019-01-23T17:58:37.347Z,-1.10
2019-01-23T18:03:51.672Z,-1.20
2019-01-23T18:09:09.120Z,-1.20
2019-01-23T18:14:12.335Z,-1.20
2019-01-23T18:19:18.875Z,-1.10
2019-01-23T18:24:25.885Z,-1.00
2019-01-23T18:29:32.248Z,-1.00
2019-01-23T18:35:10.268Z,-0.90
2019-01-23T18:41:01.051Z,-0.80
2019-01-23T18:46:51.011Z,-0.90
2019-01-23T18:52:10.246Z,-0.90
2019-01-23T18:57:19.405Z,-0.80
2019-01-23T19:02:27.968Z,-0.80
2019-01-23T19:07:36.666Z,-0.80
2019-01-23T19:12:44.940Z,-0.80
2019-01-23T19:17:50.799Z,-0.80
2019-01-23T19:22:55.390Z,-0.80
2019-01-23T19:28:09.724Z,-0.80
2019-01-23T19:33:22.700Z,-0.80
2019-01-23T19:38:25.749Z,-0.70
2019-01-23T19:43:31.823Z,-0.70
2019-01-23T19:48:35.670Z,-0.70
2019-01-23T19:53:40.106Z,-0.60
2019-01-23T19:59:01.048Z,-0.60
2019-01-23T20:04:05.667Z,-0.60
2019-01-23T20:09:10.463Z,-0.60
2019-01-23T20:14:43.067Z,-0.60
2019-01-23T20:19:52.535Z,-0.60
2019-01-23T20:25:17.728Z,-0.60
2019-01-23T20:30:40.779Z,-0.50
2019-01-23T20:42:14.255Z,-0.60
2019-01-23T20:47:35.743Z,-0.60
2019-01-23T20:53:03.663Z,-0.50
2019-01-23T21:17:16.501Z,-0.80
2019-01-23T21:22:19.279Z,-0.60
2019-01-23T21:27:26.147Z,-0.60
2019-01-23T21:32:30.294Z,-0.50
2019-01-23T21:37:44.072Z,-0.50
2019-01-23T21:42:52.202Z,-0.50
2019-01-23T21:48:07.720Z,-0.50
2019-01-23T21:53:28.731Z,-0.50
2019-01-23T21:58:32.588Z,-0.50
2019-01-23T22:03:35.940Z,-0.50
2019-01-23T22:08:39.126Z,-0.50
2019-01-23T22:13:51.312Z,-0.50
2019-01-23T22:18:56.050Z,-0.50
2019-01-23T22:23:59.015Z,-0.40
2019-01-23T22:29:11.360Z,-0.50
2019-01-23T22:34:17.991Z,-0.50
2019-01-23T22:39:21.649Z,-0.40
2019-01-23T22:44:29.294Z,-0.40
2019-01-23T22:49:32.425Z,-0.40
2019-01-23T22:54:39.232Z,-0.40
2019-01-23T22:59:42.670Z,-0.40
2019-01-23T23:05:04.455Z,-0.40
2019-01-23T23:10:12.568Z,-0.40
2019-01-23T23:15:33.803Z,-0.50
2019-01-23T23:20:37.371Z,-0.40
2019-01-23T23:25:42.579Z,-0.40
2019-01-23T23:30:48.561Z,-0.30
2019-01-23T23:35:52.109Z,-0.40
2019-01-23T23:40:59.921Z,-0.30
2019-01-23T23:46:21.072Z,-0.30
2019-01-23T23:51:28.049Z,-0.20
2019-01-23T23:56:31.211Z,-0.20
